Time;durP1;ratioP1;P1;durP2;ratioP2;P2;SDS_P1;SDS_P2;PMS_P1;PMS_P2;Temp;Humidity;BMP_temperature;BMP_pressure;BME280_temperature;BME280_humidity;BME280_pressure;Samples;Min_cycle;Max_cycle;Signal;HPM_P1;HPM_P2
2023/03/17 00:00:46;;;;;;;37.40;4.97;;;;;;;9.38;100.00;98455.56;4963529;28;20086;-80
2023/03/17 00:03:24;;;;;;;37.33;4.88;;;;;;;9.39;100.00;98457.19;4947911;28;20118;-80
2023/03/17 00:05:56;;;;;;;34.78;6.28;;;;;;;9.35;100.00;98450.66;4963364;28;20039;-80
2023/03/17 00:08:36;;;;;;;35.35;5.47;;;;;;;9.34;100.00;98454.28;4955362;28;20404;-80
2023/03/17 00:11:12;;;;;;;42.70;5.47;;;;;;;9.32;100.00;98446.56;4932747;28;20114;-80
2023/03/17 00:13:40;;;;;;;37.40;4.80;;;;;;;9.27;100.00;98447.13;4960958;28;20073;-80
2023/03/17 00:16:27;;;;;;;34.88;5.82;;;;;;;9.25;100.00;98445.69;4958120;28;20059;-80
2023/03/17 00:18:57;;;;;;;32.75;4.45;;;;;;;9.14;100.00;98445.16;4949529;28;20041;-80
2023/03/17 00:21:33;;;;;;;39.40;5.10;;;;;;;9.11;100.00;98442.88;4936664;28;20126;-80
2023/03/17 00:24:01;;;;;;;38.35;4.72;;;;;;;9.04;100.00;98439.34;4966219;28;20034;-80
2023/03/17 00:26:29;;;;;;;31.58;4.47;;;;;;;8.97;100.00;98436.63;4931096;28;20482;-80
2023/03/17 00:28:58;;;;;;;32.30;4.47;;;;;;;8.96;100.00;98439.44;4967960;28;20070;-80
2023/03/17 00:31:28;;;;;;;28.13;4.22;;;;;;;8.92;100.00;98439.81;4960398;28;20026;-80
2023/03/17 00:33:58;;;;;;;34.25;6.05;;;;;;;8.86;100.00;98445.81;4938966;28;20069;-80
2023/03/17 00:36:31;;;;;;;33.38;4.40;;;;;;;8.85;100.00;98441.56;4931218;29;20483;-80
2023/03/17 00:39:02;;;;;;;38.28;4.95;;;;;;;8.84;100.00;98444.38;4946838;28;20066;-80
2023/03/17 00:41:31;;;;;;;27.70;4.28;;;;;;;8.77;100.00;98439.03;4944112;28;20146;-80
2023/03/17 00:43:59;;;;;;;39.13;6.25;;;;;;;8.73;100.00;98443.81;4972557;28;20129;-80
2023/03/17 00:46:34;;;;;;;40.50;5.53;;;;;;;8.78;100.00;98443.28;4957077;28;20030;-80
2023/03/17 00:49:14;;;;;;;38.28;4.75;;;;;;;8.80;100.00;98441.28;4877416;28;20047;-80
2023/03/17 00:51:44;;;;;;;24.85;4.30;;;;;;;8.76;100.00;98438.19;4955013;28;20395;-80
2023/03/17 00:54:18;;;;;;;36.05;5.55;;;;;;;8.74;100.00;98445.47;4941968;28;20487;-80
2023/03/17 00:56:46;;;;;;;39.15;4.40;;;;;;;8.67;100.00;98444.56;4942116;28;20031;-80
2023/03/17 00:59:26;;;;;;;33.65;5.00;;;;;;;8.67;100.00;98445.38;4979414;28;20026;-80
2023/03/17 01:01:54;;;;;;;36.78;5.10;;;;;;;8.64;100.00;98444.91;4941798;28;20058;-80
2023/03/17 01:04:24;;;;;;;30.77;4.10;;;;;;;8.66;100.00;98442.94;4934963;29;20350;-80
2023/03/17 01:06:53;;;;;;;28.25;6.07;;;;;;;8.63;100.00;98438.03;4967528;28;20062;-80
2023/03/17 01:09:25;;;;;;;36.03;4.82;;;;;;;8.65;100.00;98441.28;4953966;28;20039;-80
2023/03/17 01:11:55;;;;;;;31.95;4.50;;;;;;;8.63;100.00;98430.91;4946903;28;20733;-80
2023/03/17 01:14:25;;;;;;;36.75;5.10;;;;;;;8.64;100.00;98435.22;4940676;28;20089;-80
2023/03/17 01:16:54;;;;;;;24.85;4.65;;;;;;;8.67;100.00;98436.66;4930367;29;20153;-80
2023/03/17 01:19:22;;;;;;;38.33;5.43;;;;;;;8.68;100.00;98438.28;4941861;28;20387;-80
2023/03/17 01:21:51;;;;;;;32.50;4.82;;;;;;;8.71;100.00;98430.03;4939684;28;20070;-80
2023/03/17 01:24:19;;;;;;;38.70;4.30;;;;;;;8.73;100.00;98429.84;4967759;28;20134;-80
2023/03/17 01:26:48;;;;;;;39.58;6.03;;;;;;;8.75;100.00;98430.47;4969223;28;20106;-80
2023/03/17 01:29:16;;;;;;;42.33;5.85;;;;;;;8.73;100.00;98427.22;4939093;28;20110;-80
2023/03/17 01:31:46;;;;;;;37.08;4.90;;;;;;;8.77;100.00;98431.13;4958834;28;20440;-80
2023/03/17 01:34:15;;;;;;;35.30;5.72;;;;;;;8.79;100.00;98429.91;4966412;28;20110;-80
2023/03/17 01:36:43;;;;;;;34.53;6.15;;;;;;;8.81;100.00;98427.94;4967189;28;20090;-80
2023/03/17 01:39:13;;;;;;;34.35;4.93;;;;;;;8.83;100.00;98427.75;4947866;28;20106;-80
2023/03/17 01:41:39;;;;;;;50.88;5.82;;;;;;;8.85;100.00;98425.75;4922784;29;20043;-80
2023/03/17 01:44:17;;;;;;;35.88;4.45;;;;;;;8.88;100.00;98430.66;4952274;28;20058;-80
2023/03/17 01:46:46;;;;;;;41.45;5.03;;;;;;;8.88;100.00;98419.28;4943251;28;20121;-80
2023/03/17 01:49:24;;;;;;;45.20;6.47;;;;;;;8.85;100.00;98417.84;4932903;28;20037;-80
2023/03/17 01:52:01;;;;;;;40.15;5.25;;;;;;;8.90;100.00;98415.47;4938232;28;20379;-80
2023/03/17 01:54:44;;;;;;;54.08;6.50;;;;;;;8.89;100.00;98413.00;4951322;28;20031;-80
2023/03/17 01:57:31;;;;;;;43.33;5.13;;;;;;;8.99;100.00;98412.72;4945073;28;20501;-80
2023/03/17 02:00:10;;;;;;;44.88;5.47;;;;;;;9.00;100.00;98414.38;4970268;28;20034;-80
2023/03/17 02:02:43;;;;;;;30.55;6.30;;;;;;;8.97;100.00;98410.28;4968672;28;20034;-80
2023/03/17 02:05:16;;;;;;;44.88;5.30;;;;;;;8.99;100.00;98408.28;4945197;28;20038;-80
2023/03/17 02:07:45;;;;;;;40.70;4.97;;;;;;;8.97;100.00;98412.09;4952500;28;20035;-80
2023/03/17 02:10:16;;;;;;;36.95;4.03;;;;;;;8.97;100.00;98406.81;4942699;28;20372;-80
2023/03/17 02:12:46;;;;;;;45.22;6.55;;;;;;;8.98;100.00;98411.09;4949016;28;20043;-80
2023/03/17 02:15:16;;;;;;;41.55;5.78;;;;;;;8.96;100.00;98413.94;4967631;28;20068;-80
2023/03/17 02:17:43;;;;;;;41.25;5.70;;;;;;;8.97;100.00;98407.66;4971768;28;20197;-80
2023/03/17 02:20:15;;;;;;;39.20;5.40;;;;;;;8.98;100.00;98405.84;4928545;28;20030;-80
2023/03/17 02:22:47;;;;;;;40.53;5.57;;;;;;;8.93;100.00;98406.41;4955261;28;20513;-80
2023/03/17 02:25:18;;;;;;;40.17;5.57;;;;;;;8.92;100.00;98404.75;4965822;28;20488;-80
2023/03/17 02:27:58;;;;;;;35.85;5.32;;;;;;;8.96;100.00;98406.03;4973249;28;20030;-80
2023/03/17 02:30:28;;;;;;;40.30;5.22;;;;;;;8.96;100.00;98405.19;4906187;28;20059;-80
2023/03/17 02:32:56;;;;;;;49.17;5.47;;;;;;;8.97;100.00;98402.38;4969298;28;20114;-80
2023/03/17 02:35:25;;;;;;;43.08;5.97;;;;;;;8.97;100.00;98397.09;4940977;29;20117;-80
2023/03/17 02:37:53;;;;;;;38.40;6.28;;;;;;;9.00;100.00;98394.09;4959859;28;20045;-80
2023/03/17 02:40:21;;;;;;;44.72;5.70;;;;;;;9.00;100.00;98388.03;4934030;28;20034;-80
2023/03/17 02:42:50;;;;;;;39.80;5.80;;;;;;;9.03;100.00;98393.72;4954127;28;20038;-80
2023/03/17 02:45:18;;;;;;;33.80;5.13;;;;;;;9.04;100.00;98392.75;4913259;29;20042;-80
2023/03/17 02:47:48;;;;;;;40.00;5.72;;;;;;;9.09;100.00;98388.72;4922857;28;20035;-80
2023/03/17 02:50:26;;;;;;;39.47;5.43;;;;;;;9.15;100.00;98377.44;4964450;28;20027;-80
2023/03/17 02:52:55;;;;;;;38.50;5.20;;;;;;;9.14;100.00;98381.09;4938625;29;20062;-80
2023/03/17 02:55:23;;;;;;;50.22;6.88;;;;;;;9.15;100.00;98372.16;4950537;29;20497;-80
2023/03/17 02:57:51;;;;;;;47.83;7.07;;;;;;;9.18;100.00;98369.16;4915268;29;20511;-80
2023/03/17 03:00:20;;;;;;;43.45;5.55;;;;;;;9.23;100.00;98376.50;4947035;29;20114;-80
2023/03/17 03:02:48;;;;;;;52.05;6.18;;;;;;;9.22;100.00;98370.41;4927079;29;20039;-80
2023/03/17 03:05:17;;;;;;;47.03;5.80;;;;;;;9.26;100.00;98365.59;4903963;29;20126;-80
2023/03/17 03:07:45;;;;;;;38.65;5.20;;;;;;;9.24;100.00;98368.41;4935591;29;20125;-80
2023/03/17 03:10:13;;;;;;;42.08;5.13;;;;;;;9.26;100.00;98360.31;4949972;29;20118;-80
2023/03/17 03:12:41;;;;;;;39.55;5.93;;;;;;;9.26;100.00;98357.69;4930754;29;20028;-80
2023/03/17 03:15:09;;;;;;;45.05;5.40;;;;;;;9.29;100.00;98352.84;4857394;29;20483;-80
2023/03/17 03:17:37;;;;;;;48.25;6.15;;;;;;;9.28;100.00;98343.31;4934839;29;20050;-80
2023/03/17 03:20:06;;;;;;;46.60;5.82;;;;;;;9.35;100.00;98361.03;4951162;29;20034;-80
2023/03/17 03:22:34;;;;;;;36.83;5.03;;;;;;;9.33;100.00;98355.94;4932843;29;20039;-80
2023/03/17 03:25:03;;;;;;;43.25;4.85;;;;;;;9.34;100.00;98349.66;4948288;29;20036;-80
2023/03/17 03:27:31;;;;;;;46.58;6.20;;;;;;;9.32;100.00;98351.66;4946357;29;20035;-80
2023/03/17 03:30:01;;;;;;;46.50;5.22;;;;;;;9.32;100.00;98353.50;4949546;29;20027;-80
2023/03/17 03:32:31;;;;;;;44.55;5.07;;;;;;;9.30;100.00;98353.69;4919684;29;20038;-80
2023/03/17 03:35:03;;;;;;;32.67;5.03;;;;;;;9.25;100.00;98348.16;4951270;29;20082;-80
2023/03/17 03:37:32;;;;;;;33.25;5.18;;;;;;;9.23;100.00;98344.88;4903737;29;20042;-80
2023/03/17 03:40:03;;;;;;;40.15;5.05;;;;;;;9.22;100.00;98349.31;4945754;29;20027;-80
2023/03/17 03:42:33;;;;;;;46.40;6.38;;;;;;;9.19;100.00;98347.06;4929189;29;20050;-80
2023/03/17 03:45:03;;;;;;;39.72;5.63;;;;;;;9.16;100.00;98348.25;4944051;29;20082;-80
2023/03/17 03:47:33;;;;;;;37.92;5.15;;;;;;;9.17;100.00;98349.09;4911613;29;20058;-80
2023/03/17 03:50:01;;;;;;;42.92;5.88;;;;;;;9.17;100.00;98335.91;4929091;29;20039;-80
2023/03/17 03:52:30;;;;;;;50.05;5.43;;;;;;;9.16;100.00;98340.34;4938056;29;20066;-80
2023/03/17 03:54:59;;;;;;;43.10;4.90;;;;;;;9.16;100.00;98335.09;4937987;28;20046;-80
2023/03/17 03:57:27;;;;;;;33.28;5.35;;;;;;;9.14;100.00;98341.56;4954391;28;20053;-80
2023/03/17 03:59:56;;;;;;;39.20;5.03;;;;;;;9.16;100.00;98335.09;4936137;28;20054;-80
2023/03/17 04:02:25;;;;;;;56.17;5.72;;;;;;;9.15;100.00;98335.28;4922356;28;20522;-80
2023/03/17 04:04:53;;;;;;;39.90;5.40;;;;;;;9.15;100.00;98338.72;4937477;28;20495;-80
2023/03/17 04:07:21;;;;;;;32.30;4.97;;;;;;;9.13;100.00;98332.81;4949398;28;20038;-80
2023/03/17 04:09:49;;;;;;;36.28;4.72;;;;;;;9.16;100.00;98331.63;4940235;28;20041;-80
2023/03/17 04:12:18;;;;;;;44.60;5.72;;;;;;;9.16;100.00;98326.34;4938691;28;20131;-80
2023/03/17 04:14:45;;;;;;;41.05;5.95;;;;;;;9.18;100.00;98337.53;4959645;28;20031;-80
2023/03/17 04:17:14;;;;;;;37.88;5.25;;;;;;;9.16;100.00;98327.19;4936796;28;20038;-80
2023/03/17 04:19:42;;;;;;;41.40;5.50;;;;;;;9.20;100.00;98330.25;4954226;29;20122;-80
2023/03/17 04:22:12;;;;;;;28.02;4.57;;;;;;;9.22;100.00;98330.06;4954603;28;20045;-80
2023/03/17 04:24:41;;;;;;;34.13;6.03;;;;;;;9.22;100.00;98325.59;4957805;28;20070;-80
2023/03/17 04:27:09;;;;;;;33.80;4.05;;;;;;;9.19;100.00;98315.44;4969848;28;20480;-80
2023/03/17 04:29:37;;;;;;;45.00;5.60;;;;;;;9.23;100.00;98321.97;4938095;28;20051;-80
2023/03/17 04:32:06;;;;;;;28.63;4.18;;;;;;;9.23;100.00;98314.06;4943972;28;20030;-80
2023/03/17 04:34:33;;;;;;;39.80;5.47;;;;;;;9.23;100.00;98318.50;4941653;28;20105;-80
2023/03/17 04:37:01;;;;;;;36.80;5.88;;;;;;;9.24;100.00;98314.88;4956942;28;20121;-80
2023/03/17 04:39:29;;;;;;;33.08;4.82;;;;;;;9.23;100.00;98314.06;4959698;28;20681;-80
2023/03/17 04:41:56;;;;;;;35.03;5.35;;;;;;;9.24;100.00;98320.97;4951704;28;20031;-80
2023/03/17 04:44:25;;;;;;;37.25;4.72;;;;;;;9.26;100.00;98321.59;4940165;28;20047;-80
2023/03/17 04:46:52;;;;;;;33.83;4.38;;;;;;;9.24;100.00;98322.78;4950908;28;20432;-80
2023/03/17 04:49:20;;;;;;;28.23;4.30;;;;;;;9.26;100.00;98320.78;4973248;28;20043;-80
2023/03/17 04:51:48;;;;;;;29.08;4.88;;;;;;;9.22;100.00;98322.16;4939111;28;20047;-80
2023/03/17 04:54:18;;;;;;;35.53;4.30;;;;;;;9.27;100.00;98325.84;4953444;28;20054;-80
2023/03/17 04:56:47;;;;;;;38.30;5.80;;;;;;;9.28;100.00;98324.03;4941457;28;20031;-80
2023/03/17 04:59:15;;;;;;;32.40;5.65;;;;;;;9.26;100.00;98324.25;4943519;28;20507;-80
2023/03/17 05:01:43;;;;;;;43.75;5.63;;;;;;;9.29;100.00;98329.13;4972909;28;20550;-79
2023/03/17 05:04:11;;;;;;;34.83;5.07;;;;;;;9.32;100.00;98338.47;4957350;28;20031;-80
2023/03/17 05:06:41;;;;;;;32.15;4.70;;;;;;;9.35;100.00;98322.28;4958979;28;20031;-80
2023/03/17 05:09:10;;;;;;;36.55;5.43;;;;;;;9.38;100.00;98334.28;4951976;28;20098;-80
2023/03/17 05:11:40;;;;;;;42.03;5.45;;;;;;;9.36;100.00;98331.84;4954632;28;20158;-80
2023/03/17 05:14:08;;;;;;;39.20;5.15;;;;;;;9.41;100.00;98321.50;4971794;28;20678;-80
2023/03/17 05:16:36;;;;;;;46.20;5.97;;;;;;;9.40;100.00;98317.25;4975749;28;20058;-80
2023/03/17 05:19:04;;;;;;;44.28;6.82;;;;;;;9.45;100.00;98329.88;4971001;28;20034;-80
2023/03/17 05:21:32;;;;;;;38.25;6.05;;;;;;;9.45;100.00;98318.50;4949396;28;20053;-80
2023/03/17 05:24:00;;;;;;;34.88;5.22;;;;;;;9.47;100.00;98317.31;4874394;28;20031;-79
2023/03/17 05:26:28;;;;;;;41.75;5.47;;;;;;;9.46;100.00;98323.59;4955028;29;20086;-80
2023/03/17 05:28:57;;;;;;;35.13;4.97;;;;;;;9.54;100.00;98327.91;4963539;28;20042;-80
2023/03/17 05:31:25;;;;;;;52.83;6.85;;;;;;;9.51;100.00;98320.38;4946339;28;20106;-80
2023/03/17 05:33:52;;;;;;;45.38;5.55;;;;;;;9.53;100.00;98321.84;4956693;28;20365;-80
2023/03/17 05:36:20;;;;;;;35.92;5.53;;;;;;;9.53;100.00;98323.66;4957661;28;20517;-80
2023/03/17 05:38:51;;;;;;;44.92;6.20;;;;;;;9.54;100.00;98320.81;4973009;28;20042;-80
2023/03/17 05:41:21;;;;;;;48.30;6.35;;;;;;;9.55;100.00;98316.38;4931313;28;20039;-80
2023/03/17 05:43:50;;;;;;;39.88;5.43;;;;;;;9.58;100.00;98312.53;4955590;28;20045;-80
2023/03/17 05:46:18;;;;;;;41.10;5.18;;;;;;;9.57;100.00;98316.19;4955854;28;20027;-80
2023/03/17 05:48:48;;;;;;;48.40;7.10;;;;;;;9.55;100.00;98311.91;4951986;28;20058;-80
2023/03/17 05:51:17;;;;;;;55.72;6.95;;;;;;;9.57;100.00;98311.72;4947873;28;20475;-80
2023/03/17 05:53:46;;;;;;;32.03;7.60;;;;;;;9.57;100.00;98314.38;4970974;28;20510;-80
2023/03/17 05:56:14;;;;;;;41.75;4.25;;;;;;;9.58;100.00;98318.63;4940918;28;20427;-80
2023/03/17 05:58:42;;;;;;;40.95;5.63;;;;;;;9.56;100.00;98310.06;4955378;28;20487;-80
2023/03/17 06:01:11;;;;;;;42.15;4.82;;;;;;;9.56;100.00;98307.44;4953090;29;20031;-80
2023/03/17 06:03:39;;;;;;;47.35;5.68;;;;;;;9.55;100.00;98311.91;4952654;28;20091;-80
2023/03/17 06:06:08;;;;;;;43.65;5.70;;;;;;;9.59;100.00;98316.81;4967423;28;20039;-80
2023/03/17 06:08:35;;;;;;;49.30;5.78;;;;;;;9.54;100.00;98320.81;4964534;28;20399;-80
2023/03/17 06:11:03;;;;;;;37.10;5.47;;;;;;;9.57;100.00;98314.38;4967084;28;20031;-80
2023/03/17 06:13:31;;;;;;;39.10;5.13;;;;;;;9.54;100.00;98323.47;4955671;28;20121;-79
2023/03/17 06:16:00;;;;;;;54.58;6.30;;;;;;;9.54;100.00;98312.91;4972385;28;20040;-80
2023/03/17 06:18:27;;;;;;;44.25;5.35;;;;;;;9.52;100.00;98316.75;4953777;28;20368;-80
2023/03/17 06:20:55;;;;;;;44.38;6.28;;;;;;;9.58;100.00;98313.34;4950772;28;20034;-80
2023/03/17 06:23:23;;;;;;;46.45;5.65;;;;;;;9.55;100.00;98317.19;4966042;28;20103;-80
2023/03/17 06:25:50;;;;;;;50.10;6.43;;;;;;;9.59;100.00;98322.88;4952115;28;20035;-80
2023/03/17 06:28:18;;;;;;;45.05;6.13;;;;;;;9.58;100.00;98321.25;4970093;28;20555;-80
2023/03/17 06:30:46;;;;;;;44.92;5.70;;;;;;;9.59;100.00;98317.59;4939528;28;20034;-80
2023/03/17 06:33:14;;;;;;;41.85;5.63;;;;;;;9.60;100.00;98318.44;4954895;28;20259;-80
2023/03/17 06:35:43;;;;;;;49.15;6.22;;;;;;;9.63;100.00;98310.97;4938954;28;20046;-80
2023/03/17 06:38:12;;;;;;;51.30;6.43;;;;;;;9.62;100.00;98317.22;4970141;28;20034;-80
2023/03/17 06:40:40;;;;;;;41.60;5.53;;;;;;;9.65;100.00;98316.06;4949633;28;20041;-80
2023/03/17 06:43:08;;;;;;;44.75;7.13;;;;;;;9.63;100.00;98310.97;4950775;28;20034;-80
2023/03/17 06:45:36;;;;;;;34.40;5.03;;;;;;;9.66;100.00;98315.84;4954686;28;20069;-79
2023/03/17 06:48:05;;;;;;;43.13;5.97;;;;;;;9.66;100.00;98317.66;4968601;28;20062;-80
2023/03/17 06:50:35;;;;;;;50.42;5.38;;;;;;;9.69;100.00;98317.28;4938348;28;20410;-80
2023/03/17 06:53:03;;;;;;;46.40;6.30;;;;;;;9.70;100.00;98320.75;4946056;28;20464;-80
2023/03/17 06:55:31;;;;;;;38.53;4.72;;;;;;;9.74;100.00;98319.34;4936762;28;20042;-80
2023/03/17 06:58:00;;;;;;;34.47;4.55;;;;;;;9.72;100.00;98322.19;4943911;29;20118;-80
2023/03/17 07:00:30;;;;;;;41.05;4.75;;;;;;;9.75;100.00;98327.06;4939622;28;20027;-80
2023/03/17 07:02:57;;;;;;;36.05;5.00;;;;;;;9.75;100.00;98321.78;4955159;28;20395;-80
2023/03/17 07:05:25;;;;;;;29.27;4.25;;;;;;;9.77;100.00;98318.97;4926016;28;20530;-80
2023/03/17 07:07:53;;;;;;;30.52;4.43;;;;;;;9.78;100.00;98325.88;4945114;28;20042;-80
2023/03/17 07:10:24;;;;;;;38.03;4.88;;;;;;;9.82;100.00;98319.22;4969746;28;20042;-80
2023/03/17 07:12:54;;;;;;;27.50;4.20;;;;;;;9.83;100.00;98312.09;4951764;29;20066;-80
2023/03/17 07:15:23;;;;;;;31.98;4.03;;;;;;;9.84;100.00;98319.84;4933294;28;20042;-80
2023/03/17 07:17:53;;;;;;;31.55;4.80;;;;;;;9.84;100.00;98314.56;4947557;28;20440;-80
2023/03/17 07:20:21;;;;;;;44.00;5.60;;;;;;;9.87;100.00;98316.00;4947136;28;20035;-80
2023/03/17 07:22:50;;;;;;;31.33;4.47;;;;;;;9.85;100.00;98318.81;4960311;28;20067;-80
2023/03/17 07:25:18;;;;;;;36.63;4.35;;;;;;;9.88;100.00;98321.09;4939124;28;20501;-80
2023/03/17 07:27:46;;;;;;;34.38;4.35;;;;;;;9.87;100.00;98319.47;4965483;28;20038;-80
2023/03/17 07:30:17;;;;;;;40.20;4.57;;;;;;;9.91;100.00;98325.97;4952651;28;20038;-80
2023/03/17 07:32:47;;;;;;;37.45;5.43;;;;;;;9.92;100.00;98324.94;4952506;28;20057;-80
2023/03/17 07:35:15;;;;;;;47.28;5.80;;;;;;;9.91;100.00;98333.88;4936601;28;20034;-81
2023/03/17 07:37:43;;;;;;;45.78;5.25;;;;;;;9.91;100.00;98335.69;4934320;29;20039;-80
2023/03/17 07:40:11;;;;;;;40.08;6.40;;;;;;;9.89;100.00;98333.25;4963347;28;20031;-80
2023/03/17 07:42:41;;;;;;;44.70;4.60;;;;;;;9.92;100.00;98330.22;4916361;28;20032;-80
2023/03/17 07:45:12;;;;;;;43.10;5.55;;;;;;;9.98;100.00;98327.84;4962840;28;20053;-79
2023/03/17 07:47:40;;;;;;;40.33;5.53;;;;;;;9.94;100.00;98340.59;4953024;28;20061;-80
2023/03/17 07:50:09;;;;;;;37.35;5.05;;;;;;;9.92;100.00;98340.78;4951977;28;20035;-80
2023/03/17 07:52:39;;;;;;;35.88;5.45;;;;;;;9.94;100.00;98330.03;4933992;28;20034;-79
2023/03/17 07:55:11;;;;;;;45.13;6.30;;;;;;;9.94;100.00;98335.31;4945682;29;20067;-80
2023/03/17 07:57:41;;;;;;;38.08;5.85;;;;;;;9.96;100.00;98332.47;4935699;29;20051;-80
2023/03/17 08:00:12;;;;;;;15.98;2.60;;;;;;;9.95;100.00;98333.50;4920683;29;20031;-79
2023/03/17 08:02:42;;;;;;;44.20;5.45;;;;;;;9.95;100.00;98334.31;4940777;29;20388;-79
2023/03/17 08:05:13;;;;;;;29.23;4.70;;;;;;;9.94;100.00;98335.31;4925513;29;20039;-80
2023/03/17 08:07:43;;;;;;;34.03;4.20;;;;;;;9.96;100.00;98327.19;4927556;29;20031;-79
2023/03/17 08:10:12;;;;;;;36.55;4.28;;;;;;;9.93;100.00;98338.97;4935045;29;20041;-79
2023/03/17 08:12:41;;;;;;;34.65;4.57;;;;;;;9.95;100.00;98338.78;4934698;29;20039;-79
2023/03/17 08:15:09;;;;;;;32.55;4.85;;;;;;;9.95;100.00;98351.97;4933379;29;20043;-79
2023/03/17 08:17:38;;;;;;;35.83;4.38;;;;;;;9.92;100.00;98345.28;4927066;29;20511;-80
2023/03/17 08:20:07;;;;;;;35.78;5.63;;;;;;;9.95;100.00;98342.25;4928008;29;20031;-80
2023/03/17 08:22:34;;;;;;;39.40;4.47;;;;;;;9.92;100.00;98342.63;4934274;29;20039;-79
2023/03/17 08:25:04;;;;;;;34.42;4.95;;;;;;;9.92;100.00;98343.44;4928780;29;20032;-80
2023/03/17 08:27:31;;;;;;;35.83;3.95;;;;;;;9.93;100.00;98339.81;4918245;29;20131;-80
2023/03/17 08:30:02;;;;;;;36.67;4.43;;;;;;;9.92;100.00;98345.28;4917536;29;20197;-80
2023/03/17 08:32:32;;;;;;;40.75;4.43;;;;;;;9.93;100.00;98347.72;4928740;29;20082;-80
2023/03/17 08:35:01;;;;;;;46.47;6.03;;;;;;;9.91;100.00;98347.09;4905203;29;20050;-80
2023/03/17 08:37:29;;;;;;;29.45;4.00;;;;;;;9.91;100.00;98355.00;4931435;29;20133;-80
2023/03/17 08:39:57;;;;;;;37.05;5.40;;;;;;;9.92;100.00;98351.34;4934053;29;20032;-80
2023/03/17 08:42:25;;;;;;;37.10;4.47;;;;;;;9.92;100.00;98345.28;4953067;29;20035;-80
2023/03/17 08:44:55;;;;;;;36.08;4.93;;;;;;;9.91;100.00;98355.00;4934381;29;20038;-80
2023/03/17 08:47:25;;;;;;;22.75;3.97;;;;;;;9.90;100.00;98345.47;4950734;29;20039;-80
2023/03/17 08:49:55;;;;;;;32.17;3.70;;;;;;;9.90;100.00;98350.75;4935051;29;20043;-80
2023/03/17 08:52:23;;;;;;;26.40;3.75;;;;;;;9.89;100.00;98351.72;4934449;29;20054;-80
2023/03/17 08:54:51;;;;;;;30.60;3.53;;;;;;;9.84;100.00;98348.88;4931457;28;20051;-80
2023/03/17 08:57:19;;;;;;;16.98;3.60;;;;;;;9.89;100.00;98351.72;4945590;28;20127;-80
2023/03/17 08:59:47;;;;;;;21.60;2.90;;;;;;;9.86;100.00;98353.94;4919179;29;20031;-80
2023/03/17 09:02:15;;;;;;;20.70;3.95;;;;;;;9.86;100.00;98360.03;4929451;28;20038;-80
2023/03/17 09:04:43;;;;;;;22.42;3.42;;;;;;;9.83;100.00;98357.78;4928840;29;20059;-80
2023/03/17 09:07:12;;;;;;;21.52;3.80;;;;;;;9.87;100.00;98361.69;4937768;29;20091;-80
2023/03/17 09:09:41;;;;;;;17.80;2.67;;;;;;;9.84;100.00;98362.06;4939306;28;20163;-80
2023/03/17 09:12:09;;;;;;;17.83;2.35;;;;;;;9.89;100.00;98361.47;4943660;28;20028;-81
2023/03/17 09:14:38;;;;;;;19.02;3.05;;;;;;;9.86;100.00;98359.22;4934037;28;20109;-80
2023/03/17 09:17:07;;;;;;;18.80;3.25;;;;;;;9.90;100.00;98356.03;4935813;29;20040;-82
2023/03/17 09:19:35;;;;;;;19.20;2.88;;;;;;;9.87;100.00;98363.50;4951337;28;20163;-82
2023/03/17 09:22:05;;;;;;;25.52;4.00;;;;;;;9.91;100.00;98360.28;4952304;29;20035;-82
2023/03/17 09:24:35;;;;;;;17.00;3.38;;;;;;;9.91;100.00;98360.28;4948320;29;20031;-82
2023/03/17 09:27:04;;;;;;;15.02;2.70;;;;;;;9.93;100.00;98353.00;4953110;29;20035;-82
2023/03/17 09:29:32;;;;;;;16.35;2.70;;;;;;;9.92;100.00;98359.25;4899111;29;20035;-83
2023/03/17 09:32:02;;;;;;;23.27;2.88;;;;;;;9.95;100.00;98352.81;4934485;29;20060;-82
2023/03/17 09:34:34;;;;;;;18.60;2.70;;;;;;;9.98;100.00;98349.78;4916733;28;20039;-82
2023/03/17 09:37:03;;;;;;;15.77;2.42;;;;;;;9.99;100.00;98351.41;4953657;29;20067;-82
2023/03/17 09:39:32;;;;;;;15.63;2.78;;;;;;;9.99;100.00;98354.03;4925559;29;20492;-81
2023/03/17 09:42:24;;;;;;;14.77;2.38;;;;;;;10.02;100.00;98358.94;4934436;29;20031;-82
2023/03/17 09:45:02;;;;;;;12.27;1.83;;;;;;;10.04;100.00;98361.38;4912148;29;20601;-82
2023/03/17 09:47:52;;;;;;;16.20;1.63;;;;;;;10.05;100.00;98358.53;4903125;29;20028;-82
2023/03/17 09:50:30;;;;;;;13.90;2.50;;;;;;;10.02;100.00;98361.56;4950034;29;20389;-82
2023/03/17 09:52:59;;;;;;;16.05;1.90;;;;;;;10.01;100.00;98364.41;4951969;28;20066;-82
2023/03/17 09:55:29;;;;;;;16.35;1.92;;;;;;;10.07;100.00;98361.00;4942327;28;20366;-82
2023/03/17 09:58:02;;;;;;;18.38;1.98;;;;;;;10.07;100.00;98365.44;4964413;28;20039;-82
2023/03/17 10:00:31;;;;;;;14.25;2.00;;;;;;;10.11;100.00;98364.06;4938288;28;20031;-81
2023/03/17 10:03:00;;;;;;;10.98;1.55;;;;;;;10.11;100.00;98364.88;4952002;28;20037;-82
2023/03/17 10:05:33;;;;;;;14.85;1.70;;;;;;;10.15;100.00;98367.94;4964311;28;20475;-81
2023/03/17 10:08:34;;;;;;;15.13;2.60;;;;;;;10.17;100.00;98371.22;4952146;28;20035;-82
2023/03/17 10:11:25;;;;;;;11.82;1.60;;;;;;;10.20;100.00;98368.19;4953208;28;20440;-82
2023/03/17 10:13:58;;;;;;;13.07;1.67;;;;;;;10.20;100.00;98367.34;4959661;28;20039;-82
2023/03/17 10:16:54;;;;;;;14.35;1.75;;;;;;;10.22;100.00;98373.28;4967933;28;20072;-82
2023/03/17 10:19:50;;;;;;;8.13;1.23;;;;;;;10.21;100.00;98374.28;4944096;28;20035;-82
2023/03/17 10:22:27;;;;;;;6.60;1.50;;;;;;;10.25;100.00;98379.00;4958889;28;20049;-82
2023/03/17 10:25:01;;;;;;;13.70;1.80;;;;;;;10.23;100.00;98378.34;4953170;28;20034;-82
2023/03/17 10:27:35;;;;;;;13.18;1.85;;;;;;;10.26;100.00;98374.50;4955904;28;20078;-82
2023/03/17 10:30:06;;;;;;;8.88;1.02;;;;;;;10.29;100.00;98382.03;4954533;28;20114;-82
2023/03/17 10:32:39;;;;;;;8.32;1.40;;;;;;;10.33;100.00;98378.03;4960468;28;20126;-82
2023/03/17 10:35:10;;;;;;;8.43;1.00;;;;;;;10.37;100.00;98376.63;4954922;28;20046;-82
2023/03/17 10:37:38;;;;;;;17.88;1.60;;;;;;;10.35;100.00;98375.97;4958946;28;20555;-82
2023/03/17 10:40:09;;;;;;;11.88;1.73;;;;;;;10.40;100.00;98378.06;4936126;28;20031;-82
2023/03/17 10:42:48;;;;;;;11.63;1.50;;;;;;;10.47;100.00;98378.94;4952721;28;20031;-82
2023/03/17 10:45:29;;;;;;;9.73;1.63;;;;;;;10.48;100.00;98380.56;4944977;28;20494;-79
2023/03/17 10:48:03;;;;;;;9.73;1.00;;;;;;;10.51;100.00;98374.88;4952364;28;20414;-82
2023/03/17 10:50:36;;;;;;;6.60;1.35;;;;;;;10.56;100.00;98373.50;4965965;28;20035;-81
2023/03/17 10:53:26;;;;;;;10.23;1.40;;;;;;;10.63;100.00;98377.81;4965851;28;20502;-79
2023/03/17 10:56:08;;;;;;;7.35;1.10;;;;;;;10.66;100.00;98376.59;4914100;28;20488;-82
2023/03/17 10:58:37;;;;;;;14.13;1.48;;;;;;;10.63;100.00;98377.81;4924395;28;20506;-82
2023/03/17 11:01:18;;;;;;;7.78;1.23;;;;;;;10.71;100.00;98381.28;4952189;28;20038;-81
2023/03/17 11:03:47;;;;;;;7.32;1.58;;;;;;;10.68;100.00;98382.50;4949498;28;20420;-82
2023/03/17 11:06:19;;;;;;;11.30;1.65;;;;;;;10.72;100.00;98382.94;4952724;28;20042;-82
2023/03/17 11:08:55;;;;;;;8.68;1.90;;;;;;;10.76;100.00;98381.50;4923015;28;20379;-82
2023/03/17 11:11:33;;;;;;;9.57;1.48;;;;;;;10.82;100.00;98391.28;4936563;28;20047;-82
2023/03/17 11:14:12;;;;;;;9.80;1.27;;;;;;;10.79;100.00;98379.31;4936757;28;20046;-82
2023/03/17 11:16:54;;;;;;;11.18;1.65;;;;;;;10.85;100.00;98388.25;4971190;28;20027;-82
2023/03/17 11:19:44;;;;;;;12.43;2.10;;;;;;;10.83;100.00;98389.47;4954076;28;20048;-83
2023/03/17 11:22:19;;;;;;;12.88;1.60;;;;;;;10.85;100.00;98393.53;4944687;28;20042;-82
2023/03/17 11:25:05;;;;;;;18.20;1.92;;;;;;;10.94;100.00;98396.03;4968541;28;20042;-82
2023/03/17 11:27:46;;;;;;;14.40;1.80;;;;;;;10.95;100.00;98387.91;4954958;28;20074;-82
2023/03/17 11:30:28;;;;;;;10.63;2.13;;;;;;;10.97;100.00;98391.16;4962906;28;20550;-81
2023/03/17 11:33:28;;;;;;;9.98;1.98;;;;;;;11.00;100.00;98393.41;4968283;28;20085;-80
2023/03/17 11:36:08;;;;;;;10.63;1.55;;;;;;;10.96;100.00;98386.06;4965344;28;20571;-81
2023/03/17 11:39:04;;;;;;;8.95;1.33;;;;;;;10.98;100.00;98392.78;4954558;28;20053;-79
2023/03/17 11:41:54;;;;;;;6.75;1.40;;;;;;;11.02;100.00;98388.72;4972380;28;20059;-82